createdAt,value
2019-04-04T00:03:36.974Z,53.34
2019-04-04T00:07:41.269Z,53.38
2019-04-04T00:11:45.544Z,53.38
2019-04-04T00:15:49.954Z,53.47
2019-04-04T00:19:54.245Z,54.17
2019-04-04T00:23:58.471Z,54.17
2019-04-04T00:28:02.730Z,54.49
2019-04-04T00:32:07.003Z,54.49
2019-04-04T00:36:11.252Z,54.50
2019-04-04T00:40:15.546Z,54.46
2019-04-04T00:44:21.022Z,54.57
2019-04-04T00:48:25.826Z,54.62
2019-04-04T00:52:30.217Z,54.69
2019-04-04T00:56:34.499Z,54.69
2019-04-04T01:00:38.903Z,54.63
2019-04-04T01:04:43.134Z,54.75
2019-04-04T01:08:47.448Z,55.14
2019-04-04T01:12:52.129Z,55.18
2019-04-04T01:16:57.456Z,55.18
2019-04-04T01:21:01.727Z,55.57
2019-04-04T01:25:07.231Z,56.71
2019-04-04T01:29:11.637Z,55.95
2019-04-04T01:33:15.947Z,56.33
2019-04-04T01:37:20.362Z,56.37
2019-04-04T01:41:24.584Z,57.03
2019-04-04T01:45:28.772Z,56.27
2019-04-04T01:49:33.024Z,56.68
2019-04-04T01:53:37.256Z,56.70
2019-04-04T01:57:41.443Z,56.46
2019-04-04T02:01:46.851Z,56.78
2019-04-04T02:05:51.683Z,56.80
2019-04-04T02:09:56.032Z,57.70
2019-04-04T02:14:00.258Z,57.24
2019-04-04T02:18:04.503Z,57.71
2019-04-04T02:22:08.816Z,57.93
2019-04-04T02:26:13.541Z,57.60
2019-04-04T02:30:17.760Z,57.58
2019-04-04T02:34:22.029Z,58.36
2019-04-04T02:38:28.040Z,58.10
2019-04-04T02:42:32.668Z,57.58
2019-04-04T02:46:36.894Z,58.01
2019-04-04T02:50:41.225Z,57.76
2019-04-04T02:54:45.462Z,57.82
2019-04-04T02:58:50.687Z,58.02
2019-04-04T03:02:54.931Z,58.02
2019-04-04T03:06:59.165Z,58.14
2019-04-04T03:11:03.479Z,57.85
2019-04-04T03:15:09.316Z,58.15
2019-04-04T03:19:13.928Z,58.50
2019-04-04T03:23:18.139Z,57.98
2019-04-04T03:27:25.797Z,58.24
2019-04-04T03:31:36.435Z,58.65
2019-04-04T03:35:34.556Z,58.24
2019-04-04T03:39:38.786Z,58.40
2019-04-04T03:43:42.992Z,58.36
2019-04-04T03:47:47.264Z,58.51
2019-04-04T03:51:51.465Z,58.46
2019-04-04T03:56:00.179Z,58.96
2019-04-04T04:00:05.889Z,58.76
2019-04-04T04:04:07.634Z,58.89
2019-04-04T04:08:11.921Z,59.05
2019-04-04T04:12:16.123Z,59.76
2019-04-04T04:16:20.351Z,59.39
2019-04-04T04:20:24.610Z,59.04
2019-04-04T04:24:30.267Z,59.32
2019-04-04T04:28:34.929Z,59.07
2019-04-04T04:32:39.168Z,59.52
2019-04-04T04:36:47.696Z,59.36
2019-04-04T04:40:50.542Z,59.68
2019-04-04T04:44:55.474Z,59.11
2019-04-04T04:49:00.675Z,59.39
2019-04-04T04:53:05.643Z,59.65
2019-04-04T04:57:17.511Z,59.46
2019-04-04T05:01:16.235Z,60.28
2019-04-04T05:05:21.961Z,59.82
2019-04-04T05:09:26.348Z,59.80
2019-04-04T05:13:30.569Z,59.81
2019-04-04T05:17:34.799Z,59.84
2019-04-04T05:21:39.040Z,59.91
2019-04-04T05:25:53.338Z,60.02
2019-04-04T05:29:49.358Z,59.96
2019-04-04T05:33:53.583Z,60.17
2019-04-04T05:37:58.029Z,60.16
2019-04-04T05:42:02.439Z,60.21
2019-04-04T05:46:07.628Z,60.06
2019-04-04T05:50:12.155Z,59.78
2019-04-04T05:54:16.851Z,60.31
2019-04-04T05:58:22.605Z,59.66
2019-04-04T06:02:27.063Z,59.64
2019-04-04T06:06:33.400Z,59.58
2019-04-04T06:10:37.474Z,59.78
2019-04-04T06:14:41.690Z,59.33
2019-04-04T06:18:49.007Z,59.19
2019-04-04T06:22:52.596Z,58.78
2019-04-04T06:26:56.881Z,58.90
2019-04-04T06:31:01.411Z,58.59
2019-04-04T06:35:05.929Z,58.27
2019-04-04T06:39:10.173Z,58.18
2019-04-04T06:43:14.490Z,57.80
2019-04-04T06:47:18.752Z,57.50
2019-04-04T06:51:22.950Z,57.12
2019-04-04T06:55:28.758Z,56.77
2019-04-04T06:59:33.611Z,56.12
2019-04-04T07:03:38.292Z,56.12
2019-04-04T07:07:43.847Z,55.78
2019-04-04T07:11:48.265Z,55.78
2019-04-04T07:16:06.360Z,55.07
2019-04-04T07:19:58.518Z,54.38
2019-04-04T07:24:02.773Z,54.38
2019-04-04T07:28:07.114Z,53.89
2019-04-04T07:32:11.473Z,54.04
2019-04-04T07:36:15.657Z,53.64
2019-04-04T07:40:20.433Z,53.06
2019-04-04T07:44:24.678Z,52.90
2019-04-04T07:48:29.300Z,52.70
2019-04-04T07:52:33.705Z,52.46
2019-04-04T07:56:38.230Z,52.24
2019-04-04T08:00:42.602Z,51.17
2019-04-04T08:04:47.319Z,51.12
2019-04-04T08:08:51.969Z,50.99
2019-04-04T08:12:56.539Z,50.16
2019-04-04T08:17:01.506Z,49.64
2019-04-04T08:21:05.967Z,49.23
2019-04-04T08:25:10.642Z,49.10
2019-04-04T08:29:14.854Z,49.55
2019-04-04T08:33:19.111Z,48.53
2019-04-04T08:37:23.783Z,48.58
2019-04-04T08:41:28.040Z,48.26
2019-04-04T08:45:32.259Z,48.00
2019-04-04T08:49:36.497Z,47.56
2019-04-04T08:53:40.797Z,47.84
2019-04-04T08:57:45.031Z,47.60
2019-04-04T09:01:49.736Z,47.24
2019-04-04T09:05:54.207Z,47.02
2019-04-04T09:09:58.617Z,46.54
2019-04-04T09:14:03.089Z,45.79
2019-04-04T09:18:07.261Z,46.34
2019-04-04T09:22:11.728Z,46.00
2019-04-04T09:26:16.160Z,45.61
2019-04-04T09:30:21.135Z,45.79
2019-04-04T09:34:25.430Z,45.44
2019-04-04T09:38:29.720Z,45.25
2019-04-04T09:42:33.946Z,44.99
2019-04-04T09:46:38.161Z,44.18
2019-04-04T09:50:42.738Z,44.18
2019-04-04T09:54:47.053Z,43.81
2019-04-04T09:58:51.325Z,44.48
2019-04-04T10:02:55.693Z,43.76
2019-04-04T10:06:59.931Z,43.09
2019-04-04T10:11:04.141Z,42.71
2019-04-04T10:15:08.965Z,41.95
2019-04-04T10:19:13.214Z,42.51
2019-04-04T10:23:17.392Z,42.65
2019-04-04T10:27:21.647Z,42.29
2019-04-04T10:31:26.195Z,41.08
2019-04-04T10:35:30.419Z,41.34
2019-04-04T10:39:34.744Z,41.99
2019-04-04T10:43:38.956Z,42.13
2019-04-04T10:47:43.135Z,41.53
2019-04-04T10:51:47.541Z,41.65
2019-04-04T10:55:51.824Z,40.81
2019-04-04T10:59:56.373Z,40.76
2019-04-04T11:04:01.699Z,40.21
2019-04-04T11:08:05.882Z,39.42
2019-04-04T11:12:10.500Z,39.19
2019-04-04T11:16:14.783Z,39.39
2019-04-04T11:20:19.080Z,39.36
2019-04-04T11:24:23.310Z,39.42
2019-04-04T11:28:27.584Z,39.44
2019-04-04T11:32:31.835Z,39.99
2019-04-04T11:36:36.085Z,39.86
2019-04-04T11:40:40.305Z,39.38
2019-04-04T11:44:44.538Z,39.51
2019-04-04T11:48:48.968Z,39.96
2019-04-04T11:52:53.481Z,39.78
2019-04-04T11:56:57.729Z,39.88
2019-04-04T12:01:04.482Z,40.28
2019-04-04T12:05:09.016Z,40.91
2019-04-04T12:09:13.219Z,40.72
2019-04-04T12:13:17.461Z,40.80
2019-04-04T12:17:21.706Z,41.04
2019-04-04T12:21:26.006Z,40.71
2019-04-04T12:25:30.195Z,40.62
2019-04-04T12:29:34.557Z,40.51
2019-04-04T12:33:38.783Z,40.48
2019-04-04T12:37:43.013Z,40.30
2019-04-04T12:41:47.246Z,40.67
2019-04-04T12:45:51.463Z,40.40
2019-04-04T12:49:56.551Z,40.10
2019-04-04T12:54:01.255Z,40.39
2019-04-04T12:58:05.868Z,40.39
2019-04-04T13:02:10.068Z,40.44
2019-04-04T13:06:14.302Z,40.63
2019-04-04T13:10:18.929Z,40.19
2019-04-04T13:14:23.140Z,40.46
2019-04-04T13:18:27.326Z,40.55
2019-04-04T13:22:31.554Z,40.21
2019-04-04T13:26:35.839Z,40.58
2019-04-04T13:30:40.137Z,40.58
2019-04-04T13:34:44.611Z,40.65
2019-04-04T13:38:48.833Z,40.21
2019-04-04T13:42:53.549Z,40.37
2019-04-04T13:46:57.926Z,40.76
2019-04-04T13:51:02.202Z,40.48
2019-04-04T13:55:06.841Z,40.49
2019-04-04T13:59:11.135Z,40.97
2019-04-04T14:03:15.354Z,40.74
2019-04-04T14:07:19.522Z,40.75
2019-04-04T14:11:23.729Z,40.73
2019-04-04T14:15:29.202Z,40.99
2019-04-04T14:19:33.457Z,41.06
2019-04-04T14:23:37.619Z,40.96
2019-04-04T14:27:41.922Z,40.66
2019-04-04T14:31:46.131Z,40.51
2019-04-04T14:35:50.356Z,40.72
2019-04-04T14:39:54.596Z,40.96
2019-04-04T14:44:00.731Z,40.65
2019-04-04T14:48:05.143Z,40.64
2019-04-04T14:52:09.687Z,40.59
2019-04-04T14:56:13.924Z,40.44
2019-04-04T15:00:19.005Z,40.44
2019-04-04T15:04:23.224Z,40.36
2019-04-04T15:08:27.431Z,40.52
2019-04-04T15:12:31.609Z,40.25
2019-04-04T15:16:35.867Z,40.42
2019-04-04T15:20:40.110Z,40.31
2019-04-04T15:24:44.326Z,40.48
2019-04-04T15:28:48.554Z,40.40
2019-04-04T15:32:52.727Z,40.75
2019-04-04T15:36:57.331Z,40.88
2019-04-04T15:41:01.539Z,41.08
2019-04-04T15:45:06.114Z,41.01
2019-04-04T15:49:10.344Z,41.28
2019-04-04T15:53:14.680Z,41.30
2019-04-04T15:57:18.949Z,41.55
2019-04-04T16:01:23.114Z,41.62
2019-04-04T16:05:27.313Z,41.48
2019-04-04T16:09:31.532Z,41.53
2019-04-04T16:13:35.755Z,41.71
2019-04-04T16:17:39.987Z,41.67
2019-04-04T16:21:44.177Z,41.72
2019-04-04T16:25:48.816Z,41.67
2019-04-04T16:29:53.100Z,41.79
2019-04-04T16:33:57.320Z,41.82
2019-04-04T16:38:02.058Z,41.99
2019-04-04T16:42:06.348Z,41.91
2019-04-04T16:46:10.864Z,42.08
2019-04-04T16:50:15.674Z,42.13
2019-04-04T16:54:19.907Z,42.04
2019-04-04T16:58:24.121Z,42.09
2019-04-04T17:02:28.347Z,42.13
2019-04-04T17:06:32.534Z,42.34
2019-04-04T17:10:36.960Z,42.29
2019-04-04T17:14:41.170Z,42.10
2019-04-04T17:18:45.378Z,42.30
2019-04-04T17:22:49.752Z,42.48
2019-04-04T17:26:54.093Z,42.34
2019-04-04T17:30:58.807Z,42.36
2019-04-04T17:35:03.155Z,42.10
2019-04-04T17:39:08.854Z,42.10
2019-04-04T17:43:13.064Z,42.25
2019-04-04T17:47:18.092Z,42.24
2019-04-04T17:51:22.689Z,42.37
2019-04-04T17:55:27.468Z,42.37
2019-04-04T17:59:31.778Z,42.62
2019-04-04T18:03:36.292Z,42.66
2019-04-04T18:07:40.635Z,42.56
2019-04-04T18:11:44.817Z,42.82
2019-04-04T18:15:49.063Z,42.79
2019-04-04T18:19:53.878Z,42.90
2019-04-04T18:23:58.145Z,43.09
2019-04-04T18:28:02.350Z,43.16
2019-04-04T18:32:07.096Z,43.24
2019-04-04T18:36:11.624Z,43.33
2019-04-04T18:40:16.676Z,43.59
2019-04-04T18:44:20.930Z,43.64
2019-04-04T18:48:25.279Z,43.78
2019-04-04T18:52:29.635Z,43.85
2019-04-04T18:56:33.882Z,43.91
2019-04-04T19:00:38.117Z,44.04
2019-04-04T19:04:42.376Z,44.01
2019-04-04T19:08:46.684Z,44.08
2019-04-04T19:12:50.919Z,44.06
2019-04-04T19:16:55.162Z,44.19
2019-04-04T19:20:59.382Z,44.29
2019-04-04T19:25:04.214Z,44.39
2019-04-04T19:29:08.743Z,44.45
2019-04-04T19:33:13.351Z,44.72
2019-04-04T19:37:17.873Z,44.84
2019-04-04T19:41:22.113Z,44.48
2019-04-04T19:45:26.647Z,44.38
2019-04-04T19:49:30.869Z,44.41
2019-04-04T19:53:35.113Z,44.92
2019-04-04T19:57:39.362Z,44.69
2019-04-04T20:01:43.580Z,44.67
2019-04-04T20:05:47.829Z,44.55
2019-04-04T20:09:52.060Z,44.73
2019-04-04T20:13:56.341Z,44.82
2019-04-04T20:18:01.057Z,45.00
2019-04-04T20:22:05.291Z,44.75
2019-04-04T20:26:09.512Z,44.51
2019-04-04T20:30:15.172Z,44.34
2019-04-04T20:34:21.281Z,44.22
2019-04-04T20:38:25.621Z,44.13
2019-04-04T20:42:29.861Z,43.87
2019-04-04T20:46:34.392Z,44.06
2019-04-04T20:50:38.625Z,44.16
2019-04-04T20:54:42.804Z,44.22
2019-04-04T20:58:47.031Z,44.25
2019-04-04T21:02:51.251Z,44.32
2019-04-04T21:06:55.503Z,44.38
2019-04-04T21:10:59.666Z,44.50
2019-04-04T21:15:04.063Z,44.59
2019-04-04T21:19:08.249Z,44.68
2019-04-04T21:23:12.482Z,44.82
2019-04-04T21:27:18.762Z,45.15
2019-04-04T21:31:22.639Z,45.16
2019-04-04T21:35:26.868Z,45.33
2019-04-04T21:39:31.244Z,45.41
2019-04-04T21:43:35.473Z,45.47
2019-04-04T21:47:39.679Z,45.58
2019-04-04T21:51:43.921Z,45.73
2019-04-04T21:55:48.114Z,46.03
2019-04-04T21:59:52.341Z,46.22
2019-04-04T22:03:56.571Z,46.15
2019-04-04T22:08:00.853Z,46.36
2019-04-04T22:12:05.100Z,46.38
2019-04-04T22:16:09.479Z,46.55
2019-04-04T22:20:14.261Z,46.65
2019-04-04T22:24:18.483Z,46.75
2019-04-04T22:28:22.716Z,46.83
2019-04-04T22:32:26.957Z,46.95
2019-04-04T22:36:31.214Z,47.27
2019-04-04T22:40:35.745Z,47.26
2019-04-04T22:44:39.950Z,47.33
2019-04-04T22:48:44.178Z,47.46
2019-04-04T22:52:48.935Z,47.44
2019-04-04T22:56:53.160Z,47.73
2019-04-04T23:00:57.391Z,47.77
2019-04-04T23:05:01.565Z,47.82
2019-04-04T23:09:08.002Z,47.91
2019-04-04T23:13:12.224Z,48.04
2019-04-04T23:17:16.471Z,48.15
2019-04-04T23:21:20.696Z,48.29
2019-04-04T23:25:24.922Z,48.44
2019-04-04T23:29:29.150Z,48.56
2019-04-04T23:33:33.505Z,48.60
2019-04-04T23:37:37.705Z,48.67
2019-04-04T23:41:41.941Z,48.79
2019-04-04T23:45:46.194Z,48.92
2019-04-04T23:49:50.444Z,49.23
2019-04-04T23:53:54.714Z,49.18
2019-04-04T23:57:58.923Z,49.31
